sensor_id;sensor_type;location;lat;lon;timestamp;temperature;humidity
22167;DHT22;11249;52.468;13.776;2023-06-14T00:00:45;13.20;99.90
22167;DHT22;11249;52.468;13.776;2023-06-14T00:03:12;13.20;99.90
22167;DHT22;11249;52.468;13.776;2023-06-14T00:05:44;13.20;99.90
22167;DHT22;11249;52.468;13.776;2023-06-14T00:08:13;13.20;99.90
22167;DHT22;11249;52.468;13.776;2023-06-14T00:10:41;13.20;99.90
22167;DHT22;11249;52.468;13.776;2023-06-14T00:13:09;13.20;99.90
22167;DHT22;11249;52.468;13.776;2023-06-14T00:15:36;13.20;99.90
22167;DHT22;11249;52.468;13.776;2023-06-14T00:18:03;13.10;99.90
22167;DHT22;11249;52.468;13.776;2023-06-14T00:20:32;13.10;99.90
22167;DHT22;11249;52.468;13.776;2023-06-14T00:23:00;13.10;99.90
22167;DHT22;11249;52.468;13.776;2023-06-14T00:25:27;13.10;99.90
22167;DHT22;11249;52.468;13.776;2023-06-14T00:27:57;13.10;99.90
22167;DHT22;11249;52.468;13.776;2023-06-14T00:30:25;13.10;99.90
22167;DHT22;11249;52.468;13.776;2023-06-14T00:32:52;13.10;99.90
22167;DHT22;11249;52.468;13.776;2023-06-14T00:35:19;13.10;99.90
22167;DHT22;11249;52.468;13.776;2023-06-14T00:37:46;13.00;99.90
22167;DHT22;11249;52.468;13.776;2023-06-14T00:40:12;13.00;99.90
22167;DHT22;11249;52.468;13.776;2023-06-14T00:42:40;13.00;99.90
22167;DHT22;11249;52.468;13.776;2023-06-14T00:45:07;13.00;99.90
22167;DHT22;11249;52.468;13.776;2023-06-14T00:47:35;13.00;99.90
22167;DHT22;11249;52.468;13.776;2023-06-14T00:50:03;12.90;99.90
22167;DHT22;11249;52.468;13.776;2023-06-14T00:52:32;12.90;99.90
22167;DHT22;11249;52.468;13.776;2023-06-14T00:54:59;12.90;99.90
22167;DHT22;11249;52.468;13.776;2023-06-14T00:57:27;12.90;99.90
22167;DHT22;11249;52.468;13.776;2023-06-14T00:59:53;12.90;99.90
22167;DHT22;11249;52.468;13.776;2023-06-14T01:02:22;12.80;99.90
22167;DHT22;11249;52.468;13.776;2023-06-14T01:04:49;12.80;99.90
22167;DHT22;11249;52.468;13.776;2023-06-14T01:07:40;12.80;99.90
22167;DHT22;11249;52.468;13.776;2023-06-14T01:10:31;12.70;99.90
22167;DHT22;11249;52.468;13.776;2023-06-14T01:13:24;12.70;99.90
22167;DHT22;11249;52.468;13.776;2023-06-14T01:15:54;12.70;99.90
22167;DHT22;11249;52.468;13.776;2023-06-14T01:18:22;12.60;99.90
22167;DHT22;11249;52.468;13.776;2023-06-14T01:20:50;12.50;99.90
22167;DHT22;11249;52.468;13.776;2023-06-14T01:23:19;12.50;99.90
22167;DHT22;11249;52.468;13.776;2023-06-14T01:25:46;12.40;99.90
22167;DHT22;11249;52.468;13.776;2023-06-14T01:28:15;12.30;99.90
22167;DHT22;11249;52.468;13.776;2023-06-14T01:30:45;12.30;99.90
22167;DHT22;11249;52.468;13.776;2023-06-14T01:33:15;12.30;99.90
22167;DHT22;11249;52.468;13.776;2023-06-14T01:35:46;12.20;99.90
22167;DHT22;11249;52.468;13.776;2023-06-14T01:38:15;12.20;99.90
22167;DHT22;11249;52.468;13.776;2023-06-14T01:40:43;12.10;99.90
22167;DHT22;11249;52.468;13.776;2023-06-14T01:43:13;12.10;99.90
22167;DHT22;11249;52.468;13.776;2023-06-14T01:45:41;12.00;99.90
22167;DHT22;11249;52.468;13.776;2023-06-14T01:48:09;12.00;99.90
22167;DHT22;11249;52.468;13.776;2023-06-14T01:50:36;11.90;99.90
22167;DHT22;11249;52.468;13.776;2023-06-14T01:53:02;11.90;99.90
22167;DHT22;11249;52.468;13.776;2023-06-14T01:55:29;11.90;99.90
22167;DHT22;11249;52.468;13.776;2023-06-14T01:57:57;11.90;99.90
22167;DHT22;11249;52.468;13.776;2023-06-14T02:00:25;11.80;99.90
22167;DHT22;11249;52.468;13.776;2023-06-14T02:02:52;11.80;99.90
22167;DHT22;11249;52.468;13.776;2023-06-14T02:05:19;11.80;99.90
22167;DHT22;11249;52.468;13.776;2023-06-14T02:07:46;11.80;99.90
22167;DHT22;11249;52.468;13.776;2023-06-14T02:10:13;11.80;99.90
22167;DHT22;11249;52.468;13.776;2023-06-14T02:12:43;11.80;99.90
22167;DHT22;11249;52.468;13.776;2023-06-14T02:15:10;11.80;99.90
22167;DHT22;11249;52.468;13.776;2023-06-14T02:17:44;11.80;99.90
22167;DHT22;11249;52.468;13.776;2023-06-14T02:20:11;11.80;99.90
22167;DHT22;11249;52.468;13.776;2023-06-14T02:22:40;11.70;99.90
22167;DHT22;11249;52.468;13.776;2023-06-14T02:25:07;11.80;99.90
22167;DHT22;11249;52.468;13.776;2023-06-14T02:27:35;11.80;99.90
22167;DHT22;11249;52.468;13.776;2023-06-14T02:30:02;11.80;99.90
22167;DHT22;11249;52.468;13.776;2023-06-14T02:32:29;11.80;99.90
22167;DHT22;11249;52.468;13.776;2023-06-14T02:34:56;11.80;99.90
22167;DHT22;11249;52.468;13.776;2023-06-14T02:37:23;11.80;99.90
22167;DHT22;11249;52.468;13.776;2023-06-14T02:39:50;11.80;99.90
22167;DHT22;11249;52.468;13.776;2023-06-14T02:42:17;11.80;99.90
22167;DHT22;11249;52.468;13.776;2023-06-14T02:44:43;11.80;99.90
22167;DHT22;11249;52.468;13.776;2023-06-14T02:47:11;11.70;99.90
22167;DHT22;11249;52.468;13.776;2023-06-14T02:49:38;11.70;99.90
22167;DHT22;11249;52.468;13.776;2023-06-14T02:52:05;11.80;99.90
22167;DHT22;11249;52.468;13.776;2023-06-14T02:54:32;11.80;99.90
22167;DHT22;11249;52.468;13.776;2023-06-14T02:56:59;11.80;99.90
22167;DHT22;11249;52.468;13.776;2023-06-14T02:59:26;11.80;99.90
22167;DHT22;11249;52.468;13.776;2023-06-14T03:01:53;11.80;99.90
22167;DHT22;11249;52.468;13.776;2023-06-14T03:04:19;11.90;99.90
22167;DHT22;11249;52.468;13.776;2023-06-14T03:06:47;11.90;99.90
22167;DHT22;11249;52.468;13.776;2023-06-14T03:09:16;11.90;99.90
22167;DHT22;11249;52.468;13.776;2023-06-14T03:11:43;11.90;99.90
22167;DHT22;11249;52.468;13.776;2023-06-14T03:14:10;11.90;99.90
22167;DHT22;11249;52.468;13.776;2023-06-14T03:16:38;12.00;99.90
22167;DHT22;11249;52.468;13.776;2023-06-14T03:19:04;12.00;99.90
22167;DHT22;11249;52.468;13.776;2023-06-14T03:21:31;12.00;99.90
22167;DHT22;11249;52.468;13.776;2023-06-14T03:23:59;12.00;99.90
22167;DHT22;11249;52.468;13.776;2023-06-14T03:26:26;12.00;99.90
22167;DHT22;11249;52.468;13.776;2023-06-14T03:28:53;11.90;99.90
22167;DHT22;11249;52.468;13.776;2023-06-14T03:31:20;11.90;99.90
22167;DHT22;11249;52.468;13.776;2023-06-14T03:33:46;12.00;99.90
22167;DHT22;11249;52.468;13.776;2023-06-14T03:36:13;12.00;99.90
22167;DHT22;11249;52.468;13.776;2023-06-14T03:38:40;12.10;99.90
22167;DHT22;11249;52.468;13.776;2023-06-14T03:41:07;12.10;99.90
22167;DHT22;11249;52.468;13.776;2023-06-14T03:43:33;12.20;99.90
22167;DHT22;11249;52.468;13.776;2023-06-14T03:46:01;12.30;99.90
22167;DHT22;11249;52.468;13.776;2023-06-14T03:48:28;12.40;99.90
22167;DHT22;11249;52.468;13.776;2023-06-14T03:50:55;12.50;99.90
22167;DHT22;11249;52.468;13.776;2023-06-14T03:53:26;12.60;99.90
22167;DHT22;11249;52.468;13.776;2023-06-14T03:55:58;12.70;99.90
22167;DHT22;11249;52.468;13.776;2023-06-14T03:58:26;12.80;99.90
22167;DHT22;11249;52.468;13.776;2023-06-14T04:00:54;12.80;99.90
22167;DHT22;11249;52.468;13.776;2023-06-14T04:03:21;12.80;99.90
22167;DHT22;11249;52.468;13.776;2023-06-14T04:05:50;12.90;99.90
22167;DHT22;11249;52.468;13.776;2023-06-14T04:08:17;12.90;99.90
22167;DHT22;11249;52.468;13.776;2023-06-14T04:10:46;12.90;99.90
22167;DHT22;11249;52.468;13.776;2023-06-14T04:13:12;12.90;99.90
22167;DHT22;11249;52.468;13.776;2023-06-14T04:15:40;13.00;99.90
22167;DHT22;11249;52.468;13.776;2023-06-14T04:18:10;13.00;99.90
22167;DHT22;11249;52.468;13.776;2023-06-14T04:20:37;13.00;99.90
22167;DHT22;11249;52.468;13.776;2023-06-14T04:23:13;13.00;99.90
22167;DHT22;11249;52.468;13.776;2023-06-14T04:25:40;13.10;99.90
22167;DHT22;11249;52.468;13.776;2023-06-14T04:28:12;13.10;99.90
22167;DHT22;11249;52.468;13.776;2023-06-14T04:30:39;13.20;99.90
22167;DHT22;11249;52.468;13.776;2023-06-14T04:33:07;13.20;99.90
22167;DHT22;11249;52.468;13.776;2023-06-14T04:35:34;13.20;99.90
22167;DHT22;11249;52.468;13.776;2023-06-14T04:38:03;13.30;99.90
22167;DHT22;11249;52.468;13.776;2023-06-14T04:40:36;13.40;99.90
22167;DHT22;11249;52.468;13.776;2023-06-14T04:43:09;13.40;99.90
22167;DHT22;11249;52.468;13.776;2023-06-14T04:45:38;13.50;99.90
22167;DHT22;11249;52.468;13.776;2023-06-14T04:48:06;13.60;99.90
22167;DHT22;11249;52.468;13.776;2023-06-14T04:50:33;13.60;99.90
22167;DHT22;11249;52.468;13.776;2023-06-14T04:53:01;13.60;99.90
22167;DHT22;11249;52.468;13.776;2023-06-14T04:55:29;13.60;99.90
22167;DHT22;11249;52.468;13.776;2023-06-14T04:57:56;13.70;99.90
22167;DHT22;11249;52.468;13.776;2023-06-14T05:00:23;13.80;99.90
22167;DHT22;11249;52.468;13.776;2023-06-14T05:02:50;13.90;99.90
22167;DHT22;11249;52.468;13.776;2023-06-14T05:05:19;14.00;99.90
22167;DHT22;11249;52.468;13.776;2023-06-14T05:07:46;14.10;99.90
22167;DHT22;11249;52.468;13.776;2023-06-14T05:10:13;14.20;99.90
22167;DHT22;11249;52.468;13.776;2023-06-14T05:12:40;14.30;99.90
22167;DHT22;11249;52.468;13.776;2023-06-14T05:15:07;14.30;99.90
22167;DHT22;11249;52.468;13.776;2023-06-14T05:17:35;14.40;99.90
22167;DHT22;11249;52.468;13.776;2023-06-14T05:20:03;14.50;99.90
22167;DHT22;11249;52.468;13.776;2023-06-14T05:22:30;14.50;99.90
22167;DHT22;11249;52.468;13.776;2023-06-14T05:24:56;14.50;99.90
22167;DHT22;11249;52.468;13.776;2023-06-14T05:27:23;14.50;99.90
22167;DHT22;11249;52.468;13.776;2023-06-14T05:29:51;14.60;99.90
22167;DHT22;11249;52.468;13.776;2023-06-14T05:32:22;14.70;99.90
22167;DHT22;11249;52.468;13.776;2023-06-14T05:34:48;14.70;99.90
22167;DHT22;11249;52.468;13.776;2023-06-14T05:37:16;14.70;99.90
22167;DHT22;11249;52.468;13.776;2023-06-14T05:39:43;14.80;99.90
22167;DHT22;11249;52.468;13.776;2023-06-14T05:42:10;14.80;99.90
22167;DHT22;11249;52.468;13.776;2023-06-14T05:44:37;14.90;99.90
22167;DHT22;11249;52.468;13.776;2023-06-14T05:47:04;14.90;99.90
22167;DHT22;11249;52.468;13.776;2023-06-14T05:49:31;14.90;99.90
22167;DHT22;11249;52.468;13.776;2023-06-14T05:51:58;14.90;99.90
22167;DHT22;11249;52.468;13.776;2023-06-14T05:54:25;15.00;99.90
22167;DHT22;11249;52.468;13.776;2023-06-14T05:56:52;14.90;99.90
22167;DHT22;11249;52.468;13.776;2023-06-14T05:59:18;15.00;99.90
22167;DHT22;11249;52.468;13.776;2023-06-14T06:01:45;15.00;99.90
22167;DHT22;11249;52.468;13.776;2023-06-14T06:04:13;14.90;99.90
22167;DHT22;11249;52.468;13.776;2023-06-14T06:06:39;15.00;99.90
22167;DHT22;11249;52.468;13.776;2023-06-14T06:09:06;15.00;99.90
22167;DHT22;11249;52.468;13.776;2023-06-14T06:11:33;15.10;99.90
22167;DHT22;11249;52.468;13.776;2023-06-14T06:14:17;15.20;99.90
22167;DHT22;11249;52.468;13.776;2023-06-14T06:16:44;15.30;99.90
22167;DHT22;11249;52.468;13.776;2023-06-14T06:19:12;15.40;99.90
22167;DHT22;11249;52.468;13.776;2023-06-14T06:21:38;15.40;99.90
22167;DHT22;11249;52.468;13.776;2023-06-14T06:24:06;15.40;99.90
22167;DHT22;11249;52.468;13.776;2023-06-14T06:26:34;15.50;99.90
22167;DHT22;11249;52.468;13.776;2023-06-14T06:29:01;15.50;99.90
22167;DHT22;11249;52.468;13.776;2023-06-14T06:31:28;15.60;99.90
22167;DHT22;11249;52.468;13.776;2023-06-14T06:33:55;15.70;99.90
22167;DHT22;11249;52.468;13.776;2023-06-14T06:36:22;15.70;99.90
22167;DHT22;11249;52.468;13.776;2023-06-14T06:38:48;15.80;99.90
22167;DHT22;11249;52.468;13.776;2023-06-14T06:41:15;16.00;99.90
22167;DHT22;11249;52.468;13.776;2023-06-14T06:43:42;16.30;99.90
22167;DHT22;11249;52.468;13.776;2023-06-14T06:46:09;16.40;99.90
22167;DHT22;11249;52.468;13.776;2023-06-14T06:48:36;16.60;99.90
22167;DHT22;11249;52.468;13.776;2023-06-14T06:51:02;16.70;99.90
22167;DHT22;11249;52.468;13.776;2023-06-14T06:53:29;16.80;99.90
22167;DHT22;11249;52.468;13.776;2023-06-14T06:56:08;16.90;99.90
22167;DHT22;11249;52.468;13.776;2023-06-14T06:58:35;17.00;99.90
22167;DHT22;11249;52.468;13.776;2023-06-14T07:01:01;17.10;99.90
22167;DHT22;11249;52.468;13.776;2023-06-14T07:03:28;17.20;99.90
22167;DHT22;11249;52.468;13.776;2023-06-14T07:05:55;17.20;99.90
22167;DHT22;11249;52.468;13.776;2023-06-14T07:08:22;17.40;99.90
22167;DHT22;11249;52.468;13.776;2023-06-14T07:10:52;17.40;99.90
22167;DHT22;11249;52.468;13.776;2023-06-14T07:13:19;17.50;99.90
22167;DHT22;11249;52.468;13.776;2023-06-14T07:15:46;17.70;99.90
22167;DHT22;11249;52.468;13.776;2023-06-14T07:18:13;17.70;99.90
22167;DHT22;11249;52.468;13.776;2023-06-14T07:20:42;17.80;99.90
22167;DHT22;11249;52.468;13.776;2023-06-14T07:23:09;18.00;99.90
22167;DHT22;11249;52.468;13.776;2023-06-14T07:25:37;18.00;99.90
22167;DHT22;11249;52.468;13.776;2023-06-14T07:28:04;18.20;99.90
22167;DHT22;11249;52.468;13.776;2023-06-14T07:30:35;18.40;99.90
22167;DHT22;11249;52.468;13.776;2023-06-14T07:33:02;18.50;99.90
22167;DHT22;11249;52.468;13.776;2023-06-14T07:35:28;18.60;99.90
22167;DHT22;11249;52.468;13.776;2023-06-14T07:37:55;18.60;99.90
22167;DHT22;11249;52.468;13.776;2023-06-14T07:40:22;18.60;99.90
22167;DHT22;11249;52.468;13.776;2023-06-14T07:42:49;18.40;99.90
22167;DHT22;11249;52.468;13.776;2023-06-14T07:45:17;18.40;99.90
22167;DHT22;11249;52.468;13.776;2023-06-14T07:47:44;18.60;99.90
22167;DHT22;11249;52.468;13.776;2023-06-14T07:50:11;18.60;99.90
22167;DHT22;11249;52.468;13.776;2023-06-14T07:52:40;18.70;99.90
22167;DHT22;11249;52.468;13.776;2023-06-14T07:55:07;18.60;99.90
22167;DHT22;11249;52.468;13.776;2023-06-14T07:57:33;18.70;99.90
22167;DHT22;11249;52.468;13.776;2023-06-14T08:00:00;18.70;99.90
22167;DHT22;11249;52.468;13.776;2023-06-14T08:02:27;18.80;99.90
22167;DHT22;11249;52.468;13.776;2023-06-14T08:04:54;19.00;99.90
22167;DHT22;11249;52.468;13.776;2023-06-14T08:07:21;19.30;99.90
22167;DHT22;11249;52.468;13.776;2023-06-14T08:09:48;19.40;99.90
22167;DHT22;11249;52.468;13.776;2023-06-14T08:12:14;19.60;99.90
22167;DHT22;11249;52.468;13.776;2023-06-14T08:14:42;19.30;99.90
22167;DHT22;11249;52.468;13.776;2023-06-14T08:17:09;19.40;99.90
22167;DHT22;11249;52.468;13.776;2023-06-14T08:19:35;19.60;99.90
22167;DHT22;11249;52.468;13.776;2023-06-14T08:22:03;19.70;99.90
22167;DHT22;11249;52.468;13.776;2023-06-14T08:24:30;19.90;99.90
22167;DHT22;11249;52.468;13.776;2023-06-14T08:26:57;19.90;99.90
22167;DHT22;11249;52.468;13.776;2023-06-14T08:29:24;19.70;99.90
22167;DHT22;11249;52.468;13.776;2023-06-14T08:31:51;19.50;99.90
22167;DHT22;11249;52.468;13.776;2023-06-14T08:34:17;19.70;99.90
22167;DHT22;11249;52.468;13.776;2023-06-14T08:36:44;19.80;99.90
22167;DHT22;11249;52.468;13.776;2023-06-14T08:39:11;19.70;99.90
22167;DHT22;11249;52.468;13.776;2023-06-14T08:41:38;19.70;99.90
22167;DHT22;11249;52.468;13.776;2023-06-14T08:44:05;19.80;99.90
22167;DHT22;11249;52.468;13.776;2023-06-14T08:46:33;20.00;99.90
22167;DHT22;11249;52.468;13.776;2023-06-14T08:49:02;19.90;99.90
22167;DHT22;11249;52.468;13.776;2023-06-14T08:51:31;19.80;99.90
22167;DHT22;11249;52.468;13.776;2023-06-14T08:54:03;19.80;99.90
22167;DHT22;11249;52.468;13.776;2023-06-14T08:56:31;19.80;99.90
22167;DHT22;11249;52.468;13.776;2023-06-14T08:58:58;20.00;99.90
22167;DHT22;11249;52.468;13.776;2023-06-14T09:01:34;20.20;99.90
22167;DHT22;11249;52.468;13.776;2023-06-14T09:04:01;20.30;99.90
22167;DHT22;11249;52.468;13.776;2023-06-14T09:06:29;20.40;99.90
22167;DHT22;11249;52.468;13.776;2023-06-14T09:08:56;20.30;99.90
22167;DHT22;11249;52.468;13.776;2023-06-14T09:11:24;20.40;99.90
22167;DHT22;11249;52.468;13.776;2023-06-14T09:13:52;20.60;99.90
22167;DHT22;11249;52.468;13.776;2023-06-14T09:16:19;21.00;99.90
22167;DHT22;11249;52.468;13.776;2023-06-14T09:18:47;21.00;99.90
22167;DHT22;11249;52.468;13.776;2023-06-14T09:21:17;21.00;99.90
22167;DHT22;11249;52.468;13.776;2023-06-14T09:23:45;21.20;99.90
22167;DHT22;11249;52.468;13.776;2023-06-14T09:26:16;21.00;99.90
22167;DHT22;11249;52.468;13.776;2023-06-14T09:28:47;21.20;99.90
22167;DHT22;11249;52.468;13.776;2023-06-14T09:31:16;21.50;99.90
22167;DHT22;11249;52.468;13.776;2023-06-14T09:33:45;21.40;99.90
22167;DHT22;11249;52.468;13.776;2023-06-14T09:36:21;21.70;99.90
22167;DHT22;11249;52.468;13.776;2023-06-14T09:38:58;21.90;99.90
22167;DHT22;11249;52.468;13.776;2023-06-14T09:44:04;21.50;99.90
22167;DHT22;11249;52.468;13.776;2023-06-14T09:46:36;21.40;99.90
22167;DHT22;11249;52.468;13.776;2023-06-14T09:49:05;21.30;99.90
22167;DHT22;11249;52.468;13.776;2023-06-14T09:51:33;21.40;99.90
22167;DHT22;11249;52.468;13.776;2023-06-14T09:54:02;21.50;99.90
22167;DHT22;11249;52.468;13.776;2023-06-14T09:56:35;21.50;99.90
22167;DHT22;11249;52.468;13.776;2023-06-14T09:59:05;21.40;99.90
22167;DHT22;11249;52.468;13.776;2023-06-14T10:01:35;21.50;99.90
22167;DHT22;11249;52.468;13.776;2023-06-14T10:04:04;21.50;99.90
22167;DHT22;11249;52.468;13.776;2023-06-14T10:06:40;21.60;99.90
22167;DHT22;11249;52.468;13.776;2023-06-14T10:09:09;21.50;99.90
22167;DHT22;11249;52.468;13.776;2023-06-14T10:11:36;21.60;99.90
22167;DHT22;11249;52.468;13.776;2023-06-14T10:14:05;21.50;99.90
22167;DHT22;11249;52.468;13.776;2023-06-14T10:16:39;21.60;99.90
22167;DHT22;11249;52.468;13.776;2023-06-14T10:19:29;21.70;99.90
22167;DHT22;11249;52.468;13.776;2023-06-14T10:22:14;21.70;99.90
22167;DHT22;11249;52.468;13.776;2023-06-14T10:24:44;21.70;99.90
22167;DHT22;11249;52.468;13.776;2023-06-14T10:27:15;21.40;99.90
22167;DHT22;11249;52.468;13.776;2023-06-14T10:32:21;21.20;99.90
22167;DHT22;11249;52.468;13.776;2023-06-14T10:34:57;21.10;99.90
22167;DHT22;11249;52.468;13.776;2023-06-14T10:37:24;21.20;99.90
22167;DHT22;11249;52.468;13.776;2023-06-14T10:39:51;21.40;99.90
22167;DHT22;11249;52.468;13.776;2023-06-14T10:42:18;21.50;99.90
22167;DHT22;11249;52.468;13.776;2023-06-14T10:44:53;21.50;99.90
22167;DHT22;11249;52.468;13.776;2023-06-14T10:47:29;21.80;99.90
22167;DHT22;11249;52.468;13.776;2023-06-14T10:50:06;22.00;99.90
22167;DHT22;11249;52.468;13.776;2023-06-14T10:52:40;22.20;99.90
22167;DHT22;11249;52.468;13.776;2023-06-14T10:55:14;22.30;99.90
22167;DHT22;11249;52.468;13.776;2023-06-14T10:57:46;22.40;99.90
22167;DHT22;11249;52.468;13.776;2023-06-14T11:00:20;22.50;99.90
22167;DHT22;11249;52.468;13.776;2023-06-14T11:03:28;22.50;99.90
22167;DHT22;11249;52.468;13.776;2023-06-14T11:05:58;22.80;99.90
22167;DHT22;11249;52.468;13.776;2023-06-14T11:08:39;23.00;99.90
22167;DHT22;11249;52.468;13.776;2023-06-14T11:11:08;23.20;99.90
22167;DHT22;11249;52.468;13.776;2023-06-14T11:13:41;23.00;99.90
22167;DHT22;11249;52.468;13.776;2023-06-14T11:16:15;23.10;99.90
22167;DHT22;11249;52.468;13.776;2023-06-14T11:18:44;22.60;99.90
22167;DHT22;11249;52.468;13.776;2023-06-14T11:21:16;22.80;99.90
22167;DHT22;11249;52.468;13.776;2023-06-14T11:23:49;22.90;99.90
22167;DHT22;11249;52.468;13.776;2023-06-14T11:26:16;22.80;99.90
22167;DHT22;11249;52.468;13.776;2023-06-14T11:28:55;23.20;99.90
22167;DHT22;11249;52.468;13.776;2023-06-14T11:31:22;23.40;99.90
22167;DHT22;11249;52.468;13.776;2023-06-14T11:33:56;24.00;99.90
22167;DHT22;11249;52.468;13.776;2023-06-14T11:36:27;24.60;99.90
22167;DHT22;11249;52.468;13.776;2023-06-14T11:39:00;24.70;99.90
22167;DHT22;11249;52.468;13.776;2023-06-14T11:41:53;25.00;99.90
22167;DHT22;11249;52.468;13.776;2023-06-14T11:44:19;25.30;99.90
22167;DHT22;11249;52.468;13.776;2023-06-14T11:46:46;25.70;99.90
22167;DHT22;11249;52.468;13.776;2023-06-14T11:49:13;25.70;99.90
22167;DHT22;11249;52.468;13.776;2023-06-14T11:51:42;25.60;99.90
22167;DHT22;11249;52.468;13.776;2023-06-14T11:54:09;25.80;99.90
22167;DHT22;11249;52.468;13.776;2023-06-14T11:56:36;26.10;99.90
22167;DHT22;11249;52.468;13.776;2023-06-14T11:59:03;26.40;99.90
22167;DHT22;11249;52.468;13.776;2023-06-14T12:01:35;26.60;99.90
22167;DHT22;11249;52.468;13.776;2023-06-14T12:04:03;26.80;99.90
22167;DHT22;11249;52.468;13.776;2023-06-14T12:06:31;27.20;99.90
22167;DHT22;11249;52.468;13.776;2023-06-14T12:09:06;27.00;99.90
22167;DHT22;11249;52.468;13.776;2023-06-14T12:11:37;27.20;99.90
22167;DHT22;11249;52.468;13.776;2023-06-14T12:14:04;26.90;99.90
22167;DHT22;11249;52.468;13.776;2023-06-14T12:16:37;27.10;99.90
22167;DHT22;11249;52.468;13.776;2023-06-14T12:19:15;27.30;99.90
22167;DHT22;11249;52.468;13.776;2023-06-14T12:21:42;27.50;99.90
22167;DHT22;11249;52.468;13.776;2023-06-14T12:24:11;28.00;99.90
22167;DHT22;11249;52.468;13.776;2023-06-14T12:26:40;28.00;99.90
22167;DHT22;11249;52.468;13.776;2023-06-14T12:29:08;28.10;99.80
22167;DHT22;11249;52.468;13.776;2023-06-14T12:31:34;27.70;99.90
22167;DHT22;11249;52.468;13.776;2023-06-14T12:34:02;28.00;99.90
22167;DHT22;11249;52.468;13.776;2023-06-14T12:36:29;28.10;99.90
22167;DHT22;11249;52.468;13.776;2023-06-14T12:38:56;28.50;99.40
22167;DHT22;11249;52.468;13.776;2023-06-14T12:41:23;28.60;99.10
22167;DHT22;11249;52.468;13.776;2023-06-14T12:43:51;28.90;98.50
22167;DHT22;11249;52.468;13.776;2023-06-14T12:46:18;28.40;98.20
22167;DHT22;11249;52.468;13.776;2023-06-14T12:48:45;28.60;98.90
22167;DHT22;11249;52.468;13.776;2023-06-14T12:51:11;28.00;98.40
22167;DHT22;11249;52.468;13.776;2023-06-14T12:53:38;27.90;99.00
22167;DHT22;11249;52.468;13.776;2023-06-14T12:56:05;28.80;99.00
22167;DHT22;11249;52.468;13.776;2023-06-14T12:58:32;29.10;97.80
22167;DHT22;11249;52.468;13.776;2023-06-14T13:00:58;29.30;97.30
22167;DHT22;11249;52.468;13.776;2023-06-14T13:03:25;29.00;96.10
22167;DHT22;11249;52.468;13.776;2023-06-14T13:05:52;29.30;96.30
22167;DHT22;11249;52.468;13.776;2023-06-14T13:08:19;30.00;97.00
22167;DHT22;11249;52.468;13.776;2023-06-14T13:10:50;30.40;96.00
22167;DHT22;11249;52.468;13.776;2023-06-14T13:13:17;29.90;95.50
22167;DHT22;11249;52.468;13.776;2023-06-14T13:15:44;30.60;94.90
22167;DHT22;11249;52.468;13.776;2023-06-14T13:18:12;30.50;94.30
22167;DHT22;11249;52.468;13.776;2023-06-14T13:20:39;31.00;93.70
22167;DHT22;11249;52.468;13.776;2023-06-14T13:23:06;31.50;92.80
22167;DHT22;11249;52.468;13.776;2023-06-14T13:25:34;31.00;92.00
22167;DHT22;11249;52.468;13.776;2023-06-14T13:28:02;29.90;92.00
22167;DHT22;11249;52.468;13.776;2023-06-14T13:30:29;30.30;93.20
22167;DHT22;11249;52.468;13.776;2023-06-14T13:32:56;30.60;92.00
22167;DHT22;11249;52.468;13.776;2023-06-14T13:35:23;30.50;91.60
22167;DHT22;11249;52.468;13.776;2023-06-14T13:37:51;30.30;92.30
22167;DHT22;11249;52.468;13.776;2023-06-14T13:40:18;30.10;92.00
22167;DHT22;11249;52.468;13.776;2023-06-14T13:42:46;29.90;92.00
22167;DHT22;11249;52.468;13.776;2023-06-14T13:45:13;29.70;91.90
22167;DHT22;11249;52.468;13.776;2023-06-14T13:47:40;29.40;92.10
22167;DHT22;11249;52.468;13.776;2023-06-14T13:50:07;28.60;92.10
22167;DHT22;11249;52.468;13.776;2023-06-14T13:52:35;28.20;92.70
22167;DHT22;11249;52.468;13.776;2023-06-14T13:55:02;28.00;93.50
22167;DHT22;11249;52.468;13.776;2023-06-14T13:57:29;28.00;93.80
22167;DHT22;11249;52.468;13.776;2023-06-14T13:59:56;28.20;93.50
22167;DHT22;11249;52.468;13.776;2023-06-14T14:02:28;28.30;93.50
22167;DHT22;11249;52.468;13.776;2023-06-14T14:04:56;28.30;93.10
22167;DHT22;11249;52.468;13.776;2023-06-14T14:07:24;28.30;93.20
22167;DHT22;11249;52.468;13.776;2023-06-14T14:09:50;28.30;92.30
22167;DHT22;11249;52.468;13.776;2023-06-14T14:12:17;28.30;92.50
22167;DHT22;11249;52.468;13.776;2023-06-14T14:14:44;28.10;92.00
22167;DHT22;11249;52.468;13.776;2023-06-14T14:17:12;28.00;92.20
22167;DHT22;11249;52.468;13.776;2023-06-14T14:19:40;27.50;92.70
22167;DHT22;11249;52.468;13.776;2023-06-14T14:22:06;27.30;93.00
22167;DHT22;11249;52.468;13.776;2023-06-14T14:24:33;27.40;93.50
22167;DHT22;11249;52.468;13.776;2023-06-14T14:27:00;27.60;93.10
22167;DHT22;11249;52.468;13.776;2023-06-14T14:29:27;28.00;92.60
22167;DHT22;11249;52.468;13.776;2023-06-14T14:31:57;28.10;93.50
22167;DHT22;11249;52.468;13.776;2023-06-14T14:34:26;28.80;94.40
22167;DHT22;11249;52.468;13.776;2023-06-14T14:36:53;29.20;92.50
22167;DHT22;11249;52.468;13.776;2023-06-14T14:39:21;28.70;92.30
22167;DHT22;11249;52.468;13.776;2023-06-14T14:41:48;28.70;93.90
22167;DHT22;11249;52.468;13.776;2023-06-14T14:44:14;28.70;92.80
22167;DHT22;11249;52.468;13.776;2023-06-14T14:46:41;28.00;92.20
22167;DHT22;11249;52.468;13.776;2023-06-14T14:49:08;27.70;92.70
22167;DHT22;11249;52.468;13.776;2023-06-14T14:51:35;27.50;92.20
22167;DHT22;11249;52.468;13.776;2023-06-14T14:54:02;27.40;92.20
22167;DHT22;11249;52.468;13.776;2023-06-14T14:56:29;27.10;92.80
22167;DHT22;11249;52.468;13.776;2023-06-14T14:58:56;27.10;93.30
22167;DHT22;11249;52.468;13.776;2023-06-14T15:01:22;26.90;93.10
22167;DHT22;11249;52.468;13.776;2023-06-14T15:03:49;26.80;93.40
22167;DHT22;11249;52.468;13.776;2023-06-14T15:06:25;26.80;93.10
22167;DHT22;11249;52.468;13.776;2023-06-14T15:08:52;26.30;92.50
22167;DHT22;11249;52.468;13.776;2023-06-14T15:11:19;26.40;93.30
22167;DHT22;11249;52.468;13.776;2023-06-14T15:13:47;26.40;92.50
22167;DHT22;11249;52.468;13.776;2023-06-14T15:16:14;26.50;93.00
22167;DHT22;11249;52.468;13.776;2023-06-14T15:18:41;26.40;92.90
22167;DHT22;11249;52.468;13.776;2023-06-14T15:21:07;26.10;92.60
22167;DHT22;11249;52.468;13.776;2023-06-14T15:23:34;25.80;92.60
22167;DHT22;11249;52.468;13.776;2023-06-14T15:26:01;25.60;93.30
22167;DHT22;11249;52.468;13.776;2023-06-14T15:28:28;25.70;93.40